Time;durP1;ratioP1;P1;durP2;ratioP2;P2;SDS_P1;SDS_P2;PMS_P1;PMS_P2;Temp;Humidity;BMP_temperature;BMP_pressure;BME280_temperature;BME280_humidity;BME280_pressure;Samples;Min_cycle;Max_cycle;Signal;HPM_P1;HPM_P2
2023/03/08 00:02:15;;;;;;;21.33;8.63;;;;;;;2.98;81.88;94168.38;5007093;28;20041;-73
2023/03/08 00:04:41;;;;;;;20.80;7.68;;;;;;;3.04;81.34;94172.53;5007735;28;20049;-73
2023/03/08 00:07:06;;;;;;;20.23;8.40;;;;;;;2.98;81.88;94176.94;5010564;28;20042;-73
2023/03/08 00:09:32;;;;;;;17.35;8.05;;;;;;;2.97;82.49;94172.75;5011551;28;20045;-73
2023/03/08 00:11:57;;;;;;;20.25;8.43;;;;;;;2.93;81.72;94182.91;5012497;28;20042;-73
2023/03/08 00:14:23;;;;;;;17.50;7.30;;;;;;;2.92;81.97;94181.31;5008796;28;20045;-73
2023/03/08 00:16:48;;;;;;;18.40;7.75;;;;;;;2.98;81.82;94189.16;5009128;28;20460;-73
2023/03/08 00:19:14;;;;;;;22.35;8.23;;;;;;;2.89;81.68;94181.84;5010123;28;20140;-73
2023/03/08 00:21:40;;;;;;;19.25;8.27;;;;;;;2.89;82.80;94194.81;5011484;28;20034;-73
2023/03/08 00:24:05;;;;;;;19.98;7.55;;;;;;;2.89;82.24;94205.22;5005313;28;20096;-73
2023/03/08 00:26:31;;;;;;;16.88;7.43;;;;;;;2.93;81.17;94197.69;5010819;28;20125;-73
2023/03/08 00:28:56;;;;;;;21.25;7.72;;;;;;;2.89;81.39;94197.44;5012174;28;20502;-73
2023/03/08 00:31:22;;;;;;;16.45;8.05;;;;;;;2.86;81.33;94191.94;5010191;28;20129;-73
2023/03/08 00:33:51;;;;;;;20.25;8.55;;;;;;;2.80;81.83;94188.53;5005079;28;20081;-73
2023/03/08 00:36:18;;;;;;;17.58;8.40;;;;;;;2.78;81.85;94186.19;5009883;28;20046;-73
2023/03/08 00:38:45;;;;;;;16.40;7.40;;;;;;;2.82;81.26;94190.91;5010879;28;20046;-73
2023/03/08 00:41:11;;;;;;;17.23;8.10;;;;;;;2.78;81.55;94190.63;5011956;28;20042;-74
2023/03/08 00:43:36;;;;;;;18.75;7.25;;;;;;;2.80;80.90;94183.34;5010305;28;20525;-73
2023/03/08 00:46:03;;;;;;;22.45;7.78;;;;;;;2.79;81.26;94184.38;5011101;28;20048;-74
2023/03/08 00:48:28;;;;;;;17.70;8.73;;;;;;;2.75;81.45;94180.72;5009897;28;20049;-73
2023/03/08 00:50:54;;;;;;;18.02;8.15;;;;;;;2.74;80.99;94179.16;5009661;28;20492;-73
2023/03/08 00:53:19;;;;;;;16.33;7.18;;;;;;;2.75;79.93;94178.13;5008063;28;20037;-73
2023/03/08 00:55:50;;;;;;;19.08;7.28;;;;;;;2.72;80.73;94170.84;5009659;28;20096;-72
2023/03/08 00:58:17;;;;;;;18.25;7.38;;;;;;;2.69;80.40;94181.75;5009794;28;20069;-73
2023/03/08 01:00:43;;;;;;;14.27;6.68;;;;;;;2.69;80.10;94186.94;5009682;28;20041;-73
2023/03/08 01:03:08;;;;;;;17.80;7.97;;;;;;;2.73;79.20;94187.97;5007538;28;20404;-72
2023/03/08 01:05:39;;;;;;;15.40;6.75;;;;;;;2.76;79.37;94187.50;5008362;28;20466;-73
2023/03/08 01:08:04;;;;;;;16.15;7.35;;;;;;;2.73;80.01;94193.16;5007176;28;20046;-73
2023/03/08 01:10:30;;;;;;;18.25;6.70;;;;;;;2.75;78.64;94178.13;5008582;28;20061;-73
2023/03/08 01:12:55;;;;;;;18.55;7.07;;;;;;;2.76;78.91;94172.69;5006796;28;20041;-73
2023/03/08 01:15:21;;;;;;;18.75;7.15;;;;;;;2.71;79.74;94179.66;5011395;28;20096;-73
2023/03/08 01:17:46;;;;;;;20.45;7.20;;;;;;;2.65;78.89;94185.88;5010265;28;20046;-73
2023/03/08 01:20:12;;;;;;;17.52;7.38;;;;;;;2.66;79.70;94182.22;5011317;28;20041;-73
2023/03/08 01:22:37;;;;;;;19.63;7.38;;;;;;;2.52;80.22;94180.09;5006309;28;20038;-73
2023/03/08 01:25:03;;;;;;;19.67;7.53;;;;;;;2.44;80.97;94175.34;5009942;28;20508;-73
2023/03/08 01:27:29;;;;;;;17.98;7.50;;;;;;;2.44;80.88;94175.34;5009609;28;20521;-73
2023/03/08 01:29:54;;;;;;;16.60;6.78;;;;;;;2.41;81.33;94175.84;5009921;28;20056;-73
2023/03/08 01:32:20;;;;;;;14.77;6.20;;;;;;;2.28;82.00;94186.69;5006745;28;20046;-73
2023/03/08 01:34:45;;;;;;;16.90;7.28;;;;;;;2.19;82.76;94179.34;5016123;28;20457;-73
2023/03/08 01:37:11;;;;;;;16.45;7.35;;;;;;;2.13;83.01;94175.16;5010299;28;20050;-73
2023/03/08 01:39:37;;;;;;;18.05;7.60;;;;;;;2.13;83.56;94175.16;5009635;28;20571;-74
2023/03/08 01:42:06;;;;;;;17.80;7.22;;;;;;;2.07;84.17;94176.94;5004313;28;20049;-74
2023/03/08 01:44:53;;;;;;;19.50;7.63;;;;;;;2.00;84.66;94180.78;5008000;28;20069;-74
2023/03/08 01:47:21;;;;;;;19.20;7.00;;;;;;;1.91;85.35;94188.22;5024718;28;20121;-74
2023/03/08 01:49:47;;;;;;;16.70;7.18;;;;;;;1.93;86.01;94190.59;5010244;28;20042;-75
2023/03/08 01:52:27;;;;;;;19.52;8.18;;;;;;;1.90;85.91;94190.03;5002551;28;20505;-74
2023/03/08 01:55:00;;;;;;;19.13;7.85;;;;;;;1.83;86.37;94171.28;5008594;28;20050;-74
2023/03/08 01:57:30;;;;;;;18.45;7.93;;;;;;;1.78;87.38;94170.47;5009532;28;20099;-74
2023/03/08 02:00:03;;;;;;;19.77;7.97;;;;;;;1.82;87.35;94164.53;5002301;28;20046;-74
2023/03/08 02:02:35;;;;;;;18.20;7.05;;;;;;;1.72;87.89;94159.25;5024679;28;20497;-73
2023/03/08 02:05:01;;;;;;;15.93;7.22;;;;;;;1.71;88.83;94162.88;5010209;28;20034;-73
2023/03/08 02:07:26;;;;;;;16.70;7.43;;;;;;;1.66;88.96;94155.06;5010425;28;20132;-74
2023/03/08 02:09:53;;;;;;;17.90;6.85;;;;;;;1.54;89.82;94158.59;5010330;28;20044;-74
2023/03/08 02:12:18;;;;;;;17.48;7.45;;;;;;;1.58;90.54;94158.09;5006702;28;20485;-74
2023/03/08 02:14:44;;;;;;;19.90;7.95;;;;;;;1.56;90.75;94145.38;5009382;28;20061;-74
2023/03/08 02:17:10;;;;;;;19.38;8.05;;;;;;;1.43;91.19;94146.56;5010234;28;20038;-74
2023/03/08 02:19:54;;;;;;;22.75;7.82;;;;;;;1.49;91.30;94155.94;5010254;28;20386;-73
2023/03/08 02:22:20;;;;;;;20.38;7.95;;;;;;;1.37;92.36;94144.97;5003432;28;20108;-74
2023/03/08 02:24:46;;;;;;;19.73;8.00;;;;;;;1.34;92.22;94150.63;5010130;28;20045;-74
2023/03/08 02:27:23;;;;;;;22.00;7.28;;;;;;;1.36;92.62;94151.16;5007046;28;20038;-74
2023/03/08 02:29:49;;;;;;;18.30;7.50;;;;;;;1.25;93.75;94139.13;5007758;28;20517;-73
2023/03/08 02:32:15;;;;;;;21.48;7.68;;;;;;;1.14;94.23;94138.25;5007790;28;20046;-74
2023/03/08 02:34:41;;;;;;;19.15;7.63;;;;;;;1.14;94.97;94133.84;5002795;28;20037;-73
2023/03/08 02:37:06;;;;;;;18.08;7.47;;;;;;;1.15;95.29;94134.63;5006853;28;20042;-73
2023/03/08 02:39:32;;;;;;;21.08;8.70;;;;;;;1.15;95.79;94135.41;5009484;28;20073;-74
2023/03/08 02:41:57;;;;;;;19.48;8.15;;;;;;;1.07;95.52;94130.66;5008161;28;20068;-73
2023/03/08 02:44:23;;;;;;;21.27;7.85;;;;;;;1.15;95.64;94119.88;5010010;28;20046;-73
2023/03/08 02:46:49;;;;;;;16.85;7.63;;;;;;;1.06;96.15;94118.72;5008055;28;20049;-73
2023/03/08 02:49:15;;;;;;;19.08;7.63;;;;;;;1.00;96.75;94120.47;5007441;28;20070;-73
2023/03/08 02:51:40;;;;;;;19.25;8.38;;;;;;;0.92;97.63;94125.31;5006861;28;20041;-74
2023/03/08 02:54:06;;;;;;;17.63;7.72;;;;;;;0.73;99.44;94117.84;5008600;28;20117;-73
2023/03/08 02:56:31;;;;;;;16.85;8.05;;;;;;;0.57;100.00;94129.06;5007192;28;20049;-74
2023/03/08 02:58:57;;;;;;;26.13;8.27;;;;;;;0.39;100.00;94128.31;5007567;28;20048;-74
2023/03/08 03:01:22;;;;;;;18.52;8.50;;;;;;;0.31;100.00;94131.31;5009773;28;20042;-74
2023/03/08 03:03:49;;;;;;;18.65;7.15;;;;;;;0.38;100.00;94126.75;5001833;28;20070;-74
2023/03/08 03:06:18;;;;;;;18.40;7.90;;;;;;;0.13;100.00;94120.22;5009248;28;20042;-74
2023/03/08 03:08:44;;;;;;;17.10;7.47;;;;;;;0.03;100.00;94117.50;5006556;28;20408;-74
2023/03/08 03:11:15;;;;;;;18.98;7.95;;;;;;;-0.14;100.00;94119.28;5008811;28;20050;-74
2023/03/08 03:13:41;;;;;;;20.10;7.63;;;;;;;-0.19;100.00;94123.38;5007730;28;20075;-74
2023/03/08 03:16:08;;;;;;;17.63;7.72;;;;;;;-0.29;100.00;94118.03;5009347;28;20052;-74
2023/03/08 03:18:33;;;;;;;20.10;7.72;;;;;;;-0.33;100.00;94122.13;5005362;28;20092;-74
2023/03/08 03:21:10;;;;;;;18.25;7.47;;;;;;;-0.26;100.00;94117.59;5007628;28;20452;-73
2023/03/08 03:23:37;;;;;;;20.65;9.00;;;;;;;-0.30;100.00;94119.06;5008077;28;20041;-73
2023/03/08 03:26:07;;;;;;;20.33;7.85;;;;;;;-0.14;100.00;94111.53;5008855;28;20042;-73
2023/03/08 03:28:33;;;;;;;18.55;7.50;;;;;;;-0.08;100.00;94115.78;5006723;28;20080;-72
2023/03/08 03:30:59;;;;;;;21.63;7.95;;;;;;;-0.18;100.00;94109.41;5007273;28;20038;-73
2023/03/08 03:33:24;;;;;;;19.13;7.60;;;;;;;-0.15;100.00;94099.63;5003420;28;20061;-73
2023/03/08 03:35:50;;;;;;;20.38;8.77;;;;;;;-0.36;100.00;94097.53;5006669;28;20061;-73
2023/03/08 03:38:17;;;;;;;25.38;7.93;;;;;;;-0.55;100.00;94109.91;5007483;28;20056;-72
2023/03/08 03:40:42;;;;;;;20.92;8.88;;;;;;;-0.56;100.00;94103.16;5008146;28;20042;-73
2023/03/08 03:43:08;;;;;;;20.95;8.15;;;;;;;-0.61;100.00;94099.72;5006329;28;20060;-73
2023/03/08 03:45:33;;;;;;;23.70;8.57;;;;;;;-0.65;100.00;94104.53;5007275;28;20162;-73
2023/03/08 03:47:59;;;;;;;21.92;8.07;;;;;;;-0.79;100.00;94087.78;5008076;28;20034;-73
2023/03/08 03:50:24;;;;;;;19.85;8.13;;;;;;;-0.89;100.00;94086.59;5007293;28;20050;-73
2023/03/08 03:52:50;;;;;;;21.25;8.30;;;;;;;-0.96;100.00;94088.53;5010112;28;20041;-73
2023/03/08 03:55:16;;;;;;;23.80;8.57;;;;;;;-1.06;100.00;94083.97;5012206;28;20056;-73
2023/03/08 03:57:41;;;;;;;21.20;8.35;;;;;;;-1.13;100.00;94087.72;5011536;28;20061;-73
2023/03/08 04:00:07;;;;;;;18.83;8.10;;;;;;;-1.17;100.00;94086.63;5005741;28;20065;-73
2023/03/08 04:02:33;;;;;;;21.02;7.97;;;;;;;-1.21;100.00;94091.44;5009569;28;20050;-72
2023/03/08 04:04:59;;;;;;;19.88;7.35;;;;;;;-1.26;100.00;94089.56;5005414;28;20056;-72
2023/03/08 04:07:24;;;;;;;19.77;7.45;;;;;;;-1.27;100.00;94092.38;5012645;28;20523;-72
2023/03/08 04:09:50;;;;;;;23.30;7.97;;;;;;;-1.34;100.00;94087.34;5010693;28;20046;-72
2023/03/08 04:12:15;;;;;;;21.98;8.20;;;;;;;-1.40;100.00;94088.25;5008857;28;20117;-72
2023/03/08 04:14:41;;;;;;;19.48;7.38;;;;;;;-1.50;100.00;94082.91;5011516;28;20482;-72
2023/03/08 04:17:07;;;;;;;23.90;8.10;;;;;;;-1.40;100.00;94088.25;5012630;28;20494;-72
2023/03/08 04:19:33;;;;;;;22.52;8.10;;;;;;;-1.37;100.00;94077.47;5009897;28;20172;-72
2023/03/08 04:21:58;;;;;;;19.02;7.43;;;;;;;-1.40;100.00;94085.66;5011287;28;20725;-72
2023/03/08 04:24:24;;;;;;;18.92;7.97;;;;;;;-1.38;100.00;94081.06;5012004;28;20042;-72
2023/03/08 04:26:50;;;;;;;17.20;7.05;;;;;;;-1.24;100.00;94074.59;5010527;28;20053;-72
2023/03/08 04:29:15;;;;;;;22.15;8.70;;;;;;;-1.41;100.00;94076.34;5012542;28;20044;-72
2023/03/08 04:31:41;;;;;;;23.08;8.32;;;;;;;-1.34;100.00;94069.25;5023541;28;20088;-73
2023/03/08 04:34:06;;;;;;;19.92;7.95;;;;;;;-1.31;100.00;94065.44;5010108;28;20673;-73
2023/03/08 04:36:32;;;;;;;19.00;7.85;;;;;;;-1.25;100.00;94060.16;5012153;28;20125;-73
2023/03/08 04:38:58;;;;;;;20.05;7.85;;;;;;;-1.27;100.00;94057.00;5011622;28;20409;-72
2023/03/08 04:41:24;;;;;;;21.20;7.90;;;;;;;-1.26;100.00;94048.25;5005321;28;20057;-72
2023/03/08 04:43:52;;;;;;;21.27;7.95;;;;;;;-1.22;100.00;94044.19;5009642;28;20042;-73
2023/03/08 04:46:20;;;;;;;23.60;7.82;;;;;;;-1.20;100.00;94050.94;5011058;28;20046;-72
2023/03/08 04:48:46;;;;;;;21.33;7.70;;;;;;;-1.23;100.00;94042.63;5009325;28;20101;-73
2023/03/08 04:51:13;;;;;;;23.77;7.60;;;;;;;-1.19;100.00;94047.31;5010948;28;20510;-73
2023/03/08 04:53:40;;;;;;;24.33;8.40;;;;;;;-1.20;100.00;94038.03;5011164;28;20053;-72
2023/03/08 04:56:07;;;;;;;23.63;8.18;;;;;;;-1.15;100.00;94038.09;5008190;28;20042;-72
2023/03/08 04:58:34;;;;;;;19.10;8.10;;;;;;;-1.18;100.00;94033.41;5008432;28;20054;-72
2023/03/08 05:01:07;;;;;;;17.95;7.35;;;;;;;-1.15;100.00;94022.63;5009873;28;20374;-73
2023/03/08 05:03:33;;;;;;;19.90;7.68;;;;;;;-1.08;100.00;94023.25;5004548;28;20133;-72
2023/03/08 05:05:58;;;;;;;21.42;7.90;;;;;;;-0.91;100.00;94021.47;5010429;28;20069;-73
2023/03/08 05:08:24;;;;;;;20.40;8.60;;;;;;;-0.77;100.00;94013.44;5010549;28;20049;-74
2023/03/08 05:10:58;;;;;;;29.27;10.35;;;;;;;-0.69;100.00;94010.44;5010538;28;20053;-73
2023/03/08 05:13:29;;;;;;;21.77;8.82;;;;;;;-0.60;100.00;93993.53;5006941;28;20050;-73
2023/03/08 05:15:55;;;;;;;22.38;8.13;;;;;;;-0.51;100.00;93999.09;5010574;28;20038;-73
2023/03/08 05:18:20;;;;;;;24.50;9.52;;;;;;;-0.50;100.00;93992.91;5009233;28;20038;-73
2023/03/08 05:20:58;;;;;;;20.98;8.40;;;;;;;-0.47;100.00;93989.84;5006233;28;20136;-72
2023/03/08 05:23:25;;;;;;;22.73;8.90;;;;;;;-0.50;100.00;93981.75;5008422;28;20044;-73
2023/03/08 05:25:53;;;;;;;24.52;9.35;;;;;;;-0.53;100.00;93977.88;5019943;28;20037;-73
2023/03/08 05:28:19;;;;;;;25.45;9.43;;;;;;;-0.52;100.00;93969.09;5010266;28;20053;-73
2023/03/08 05:30:44;;;;;;;23.08;9.70;;;;;;;-0.48;100.00;93979.75;5009577;28;20556;-73
2023/03/08 05:33:10;;;;;;;21.58;8.75;;;;;;;-0.47;100.00;93978.72;5006417;28;20038;-73
2023/03/08 05:35:35;;;;;;;26.42;10.50;;;;;;;-0.48;100.00;93972.00;5007892;28;20045;-73
2023/03/08 05:38:01;;;;;;;34.72;10.00;;;;;;;-0.36;100.00;93967.47;5011518;28;21598;-73
2023/03/08 05:40:27;;;;;;;21.10;8.77;;;;;;;-0.37;100.00;93976.28;5009443;28;20125;-73
2023/03/08 05:42:53;;;;;;;21.50;9.63;;;;;;;-0.37;100.00;93971.88;5008156;28;20049;-73
2023/03/08 05:45:19;;;;;;;22.20;9.07;;;;;;;-0.35;100.00;93964.66;5007066;28;20136;-74
2023/03/08 05:47:45;;;;;;;28.27;9.93;;;;;;;-0.36;100.00;93957.16;5006743;28;20046;-73
2023/03/08 05:50:11;;;;;;;23.70;9.27;;;;;;;-0.37;100.00;93955.59;5007607;28;20489;-73
2023/03/08 05:52:36;;;;;;;27.05;8.75;;;;;;;-0.44;100.00;93949.81;5007624;28;20037;-74
2023/03/08 05:55:02;;;;;;;28.50;9.45;;;;;;;-0.41;100.00;93957.09;5009840;28;20045;-75
2023/03/08 05:57:27;;;;;;;24.15;9.00;;;;;;;-0.38;100.00;93954.03;5011286;28;20038;-73
2023/03/08 05:59:53;;;;;;;26.38;9.63;;;;;;;-0.41;100.00;93954.50;5010299;28;20137;-74
2023/03/08 06:02:19;;;;;;;22.63;9.98;;;;;;;-0.43;100.00;93959.13;5007425;28;20696;-73
2023/03/08 06:04:44;;;;;;;27.35;9.55;;;;;;;-0.36;100.00;93957.16;5006853;28;20417;-73
2023/03/08 06:07:10;;;;;;;25.80;9.68;;;;;;;-0.34;100.00;93955.13;5011791;28;20037;-73
2023/03/08 06:09:35;;;;;;;24.67;9.52;;;;;;;-0.29;100.00;93950.00;5016860;28;20037;-73
2023/03/08 06:12:01;;;;;;;19.27;8.43;;;;;;;-0.25;100.00;93953.69;5012174;28;20041;-74
2023/03/08 06:14:26;;;;;;;32.17;10.45;;;;;;;-0.23;100.00;93950.84;5015166;28;20069;-73
2023/03/08 06:16:52;;;;;;;25.48;10.60;;;;;;;-0.15;100.00;93947.84;4996336;28;20054;-76
2023/03/08 06:19:18;;;;;;;27.85;10.55;;;;;;;-0.08;100.00;93952.84;5010437;28;20061;-73
2023/03/08 06:21:43;;;;;;;24.65;9.52;;;;;;;0.04;100.00;93944.97;5006619;28;20045;-73
2023/03/08 06:24:09;;;;;;;24.35;10.15;;;;;;;0.00;100.00;93949.84;5008837;28;20037;-75
2023/03/08 06:26:34;;;;;;;27.55;10.07;;;;;;;0.13;100.00;93952.06;5004730;28;20088;-73
2023/03/08 06:29:00;;;;;;;23.02;10.05;;;;;;;0.20;100.00;93953.69;5017650;28;20537;-74
2023/03/08 06:31:25;;;;;;;27.13;9.95;;;;;;;0.25;100.00;93948.56;5007539;28;20068;-74
2023/03/08 06:33:51;;;;;;;29.35;10.93;;;;;;;0.36;100.00;93957.22;5007116;28;20038;-74
2023/03/08 06:36:18;;;;;;;27.77;10.82;;;;;;;0.44;100.00;93952.38;5007860;28;20100;-76
2023/03/08 06:38:45;;;;;;;30.88;10.70;;;;;;;0.59;100.00;93951.75;5010105;28;20041;-73
2023/03/08 06:41:12;;;;;;;26.10;10.20;;;;;;;0.74;100.00;93953.69;5008951;28;20646;-74
2023/03/08 06:43:38;;;;;;;26.48;10.85;;;;;;;0.77;100.00;93948.03;5006918;28;20045;-71
2023/03/08 06:46:06;;;;;;;28.95;9.45;;;;;;;0.83;100.00;93962.59;5010584;28;20053;-72
2023/03/08 06:48:33;;;;;;;21.15;9.57;;;;;;;0.87;100.00;93960.28;5009916;28;20057;-74
2023/03/08 06:50:58;;;;;;;28.83;11.10;;;;;;;0.95;100.00;93964.22;5008707;28;20041;-74
2023/03/08 06:53:24;;;;;;;26.10;10.38;;;;;;;0.99;100.00;93962.69;5009094;28;20096;-74
2023/03/08 06:55:50;;;;;;;27.10;10.68;;;;;;;1.08;100.00;93963.81;5009906;28;20580;-75
2023/03/08 06:58:15;;;;;;;31.42;10.85;;;;;;;1.14;100.00;93965.41;5010468;28;20042;-74
2023/03/08 07:00:41;;;;;;;23.88;10.25;;;;;;;1.25;100.00;93973.25;5009661;28;20038;-74
2023/03/08 07:03:06;;;;;;;27.70;10.60;;;;;;;1.29;100.00;93963.97;5001305;28;20047;-73
2023/03/08 07:05:32;;;;;;;30.00;10.57;;;;;;;1.28;100.00;93963.19;5008347;28;20037;-72
2023/03/08 07:07:57;;;;;;;29.38;10.77;;;;;;;1.33;100.00;93970.22;5010621;28;20048;-71
2023/03/08 07:10:23;;;;;;;27.48;10.40;;;;;;;1.36;100.00;93959.34;5010577;28;20048;-73
2023/03/08 07:12:50;;;;;;;27.23;10.77;;;;;;;1.42;100.00;93973.91;5008064;28;20057;-73
2023/03/08 07:15:20;;;;;;;25.50;10.65;;;;;;;1.43;100.00;93967.69;5009393;28;20081;-72
2023/03/08 07:17:47;;;;;;;24.92;10.80;;;;;;;1.51;100.00;93969.81;5010651;28;20037;-72
2023/03/08 07:20:15;;;;;;;26.55;10.63;;;;;;;1.59;100.00;93972.97;5003427;28;20047;-72
2023/03/08 07:22:43;;;;;;;28.58;10.98;;;;;;;1.65;100.00;93979.75;5006711;28;20517;-72
2023/03/08 07:25:17;;;;;;;28.08;11.27;;;;;;;1.77;100.00;93980.34;5010224;28;20050;-73
2023/03/08 07:27:43;;;;;;;;;;;;;;;1.82;100.00;93985.53;5013455;28;20054;-73
2023/03/08 07:30:10;;;;;;;27.50;10.60;;;;;;;2.00;100.00;93993.97;5011726;28;19928;-74
2023/03/08 07:32:38;;;;;;;26.95;9.65;;;;;;;1.92;100.00;93984.06;5012307;28;20038;-73
2023/03/08 07:35:04;;;;;;;27.52;11.57;;;;;;;1.93;100.00;93972.66;5010399;28;20037;-74
2023/03/08 07:37:30;;;;;;;29.30;11.65;;;;;;;1.90;100.00;93966.91;5013158;28;20037;-74
2023/03/08 07:39:55;;;;;;;29.27;10.65;;;;;;;1.98;100.00;93964.88;5007839;28;20107;-72
2023/03/08 07:42:21;;;;;;;30.20;11.43;;;;;;;2.10;100.00;93962.88;5006726;28;20519;-72
2023/03/08 07:44:47;;;;;;;78.15;14.23;;;;;;;2.14;100.00;93974.31;5007764;28;20049;-73
2023/03/08 07:47:12;;;;;;;28.92;11.68;;;;;;;2.27;100.00;93967.06;5008965;28;20508;-73
2023/03/08 07:49:38;;;;;;;28.52;10.88;;;;;;;2.33;100.00;93961.63;5009794;28;20050;-73
2023/03/08 07:52:04;;;;;;;26.92;10.57;;;;;;;2.42;100.00;93964.50;5007086;28;20224;-73
2023/03/08 07:54:29;;;;;;;28.63;11.20;;;;;;;2.59;100.00;93962.47;5009118;28;20045;-73
2023/03/08 07:56:55;;;;;;;28.38;11.30;;;;;;;2.68;100.00;93962.75;5009746;28;20125;-73
2023/03/08 07:59:22;;;;;;;30.90;11.23;;;;;;;2.94;100.00;93976.56;5004399;28;20126;-73
2023/03/08 08:01:47;;;;;;;24.00;9.73;;;;;;;3.10;100.00;93953.97;5015593;28;20092;-73
2023/03/08 08:04:13;;;;;;;27.50;10.80;;;;;;;3.03;100.00;93937.84;5015037;28;20045;-72
2023/03/08 08:06:40;;;;;;;31.15;10.75;;;;;;;3.28;100.00;93931.84;5009671;28;20109;-74
2023/03/08 08:09:07;;;;;;;26.83;10.95;;;;;;;3.36;100.00;93929.75;5016021;28;20381;-72
2023/03/08 08:11:33;;;;;;;23.55;10.50;;;;;;;3.34;100.00;93921.44;5005938;28;20532;-73
2023/03/08 08:14:03;;;;;;;25.52;11.32;;;;;;;3.52;100.00;93918.31;5009294;28;20038;-72
2023/03/08 08:16:28;;;;;;;22.25;10.52;;;;;;;3.58;100.00;93917.25;5012109;28;20056;-73
2023/03/08 08:18:54;;;;;;;23.45;10.45;;;;;;;3.63;100.00;93904.22;5014162;28;20050;-72
2023/03/08 08:21:20;;;;;;;25.67;10.57;;;;;;;3.97;100.00;93906.19;5023171;28;20524;-73
2023/03/08 08:23:46;;;;;;;24.60;9.63;;;;;;;4.15;100.00;93906.63;5019716;28;20049;-74
2023/03/08 08:26:18;;;;;;;20.73;10.65;;;;;;;4.27;100.00;93906.31;5012818;28;20049;-73
2023/03/08 08:28:46;;;;;;;20.30;9.50;;;;;;;4.31;100.00;93882.06;5017373;28;20559;-73
2023/03/08 08:31:15;;;;;;;19.85;9.52;;;;;;;4.30;100.00;93871.94;5011371;28;20417;-74
2023/03/08 08:33:40;;;;;;;22.98;9.45;;;;;;;4.27;100.00;93870.63;5009471;28;20117;-72
2023/03/08 08:36:11;;;;;;;27.35;10.85;;;;;;;4.15;100.00;93868.34;5018581;28;20049;-72
2023/03/08 08:38:36;;;;;;;26.48;9.75;;;;;;;4.27;100.00;93852.41;5009534;28;20045;-72
2023/03/08 08:41:04;;;;;;;22.15;9.98;;;;;;;4.17;100.00;93834.25;5020755;28;20112;-74
2023/03/08 08:43:32;;;;;;;24.98;9.50;;;;;;;4.28;100.00;93820.13;5014921;28;20049;-72
2023/03/08 08:45:59;;;;;;;23.40;9.95;;;;;;;4.31;97.87;93813.56;5014870;28;20048;-73
2023/03/08 08:48:25;;;;;;;27.48;10.18;;;;;;;4.39;96.38;93809.63;5020280;28;20043;-72
2023/03/08 08:50:52;;;;;;;22.83;9.52;;;;;;;4.38;94.48;93797.63;5012452;28;20042;-73
2023/03/08 08:53:18;;;;;;;24.70;10.65;;;;;;;4.53;95.39;93789.72;5009677;28;20041;-72
2023/03/08 08:55:44;;;;;;;18.33;8.93;;;;;;;4.68;90.59;93780.97;5019392;28;20468;-73
2023/03/08 08:58:09;;;;;;;26.27;9.77;;;;;;;4.77;91.36;93781.16;5029883;28;20041;-73
2023/03/08 09:00:35;;;;;;;31.83;10.20;;;;;;;4.82;89.88;93786.34;5015903;28;20033;-72
2023/03/08 09:03:02;;;;;;;21.27;9.50;;;;;;;4.88;87.83;93790.44;5017480;28;20034;-72
2023/03/08 09:05:29;;;;;;;20.98;10.13;;;;;;;5.05;86.40;93786.66;5015313;28;20140;-72
2023/03/08 09:07:57;;;;;;;20.83;8.82;;;;;;;5.05;85.27;93784.03;5015607;28;20041;-74
2023/03/08 09:10:25;;;;;;;20.30;9.10;;;;;;;5.11;86.50;93788.16;5017154;28;20049;-72
2023/03/08 09:12:50;;;;;;;21.67;9.10;;;;;;;5.06;84.15;93785.56;5004739;28;20041;-72
2023/03/08 09:15:16;;;;;;;25.42;9.57;;;;;;;5.15;84.85;93768.28;5012333;28;20053;-73
2023/03/08 09:17:42;;;;;;;25.00;10.20;;;;;;;5.06;84.02;93764.72;5010765;28;20113;-73
2023/03/08 09:20:08;;;;;;;24.35;10.32;;;;;;;5.09;85.49;93753.75;5006814;28;20092;-73
2023/03/08 09:22:37;;;;;;;22.73;9.88;;;;;;;5.15;85.19;93757.84;5007970;28;20042;-73
2023/03/08 09:25:05;;;;;;;22.45;9.70;;;;;;;5.19;86.65;93758.84;5019208;28;20052;-73
2023/03/08 09:27:30;;;;;;;20.88;8.90;;;;;;;5.19;85.64;93743.22;5008778;28;20080;-72
2023/03/08 09:29:57;;;;;;;26.00;10.40;;;;;;;5.17;86.13;93734.88;5003896;28;20508;-72
2023/03/08 09:32:23;;;;;;;23.05;10.93;;;;;;;5.17;86.17;93735.66;5005639;28;20434;-74
2023/03/08 09:34:49;;;;;;;27.90;10.70;;;;;;;5.17;87.09;93734.88;5002529;28;20037;-73
2023/03/08 09:37:15;;;;;;;25.90;11.15;;;;;;;5.31;87.70;93709.66;5008317;28;20737;-73
2023/03/08 09:39:41;;;;;;;25.40;11.05;;;;;;;5.36;88.72;93722.66;5009809;28;20074;-72
2023/03/08 09:42:23;;;;;;;28.42;12.00;;;;;;;5.40;86.68;93727.31;5009651;28;20073;-73
2023/03/08 09:45:06;;;;;;;30.20;10.98;;;;;;;5.60;84.39;93711.38;5016125;28;20053;-76
2023/03/08 09:47:51;;;;;;;22.27;9.30;;;;;;;5.66;83.31;93715.50;5002798;28;20038;-73
2023/03/08 09:50:28;;;;;;;;;;;;;;;5.76;83.22;93705.97;5007928;28;20100;-73
2023/03/08 09:52:59;;;;;;;27.60;11.23;;;;;;;5.78;84.40;93706.47;5008837;28;20404;-72
2023/03/08 09:55:33;;;;;;;24.45;10.77;;;;;;;5.83;85.01;93709.00;5011530;28;20092;-73
2023/03/08 09:58:01;;;;;;;27.58;10.52;;;;;;;5.88;83.80;93706.31;5006828;28;20477;-73
2023/03/08 10:00:30;;;;;;;28.92;10.43;;;;;;;6.14;81.50;93713.81;5001170;28;20492;-74
2023/03/08 10:03:11;;;;;;;26.50;10.73;;;;;;;6.06;79.90;93708.16;5011829;28;20041;-72
2023/03/08 10:05:44;;;;;;;30.50;11.88;;;;;;;6.44;79.21;93691.63;5021679;28;20042;-72
2023/03/08 10:08:30;;;;;;;23.60;10.82;;;;;;;6.71;79.02;93680.44;5021936;28;20049;-73
2023/03/08 10:11:06;;;;;;;23.60;10.68;;;;;;;7.06;78.68;93680.84;5008325;28;20046;-71
2023/03/08 10:13:41;;;;;;;29.45;10.75;;;;;;;7.35;73.15;93687.59;5019774;28;20046;-71
2023/03/08 10:16:14;;;;;;;26.58;10.50;;;;;;;7.13;73.14;93700.63;5010897;28;20505;-71
2023/03/08 10:18:46;;;;;;;27.88;11.57;;;;;;;7.04;72.98;93690.03;5015747;28;20523;-71
2023/03/08 10:21:17;;;;;;;22.40;10.63;;;;;;;6.63;74.50;93686.34;5014015;28;20507;-69
2023/03/08 10:23:50;;;;;;;23.23;10.68;;;;;;;6.35;78.82;93691.53;5013223;28;20117;-69
2023/03/08 10:26:17;;;;;;;24.50;10.53;;;;;;;6.29;75.93;93692.66;5010771;28;20064;-72
2023/03/08 10:28:43;;;;;;;23.48;10.65;;;;;;;6.28;76.93;93678.06;5011316;28;20042;-75
2023/03/08 10:31:20;;;;;;;32.22;11.27;;;;;;;6.26;79.66;93690.63;5007935;28;20038;-74
2023/03/08 10:33:48;;;;;;;22.10;10.35;;;;;;;6.27;78.78;93707.84;5007185;28;20045;-75
2023/03/08 10:36:18;;;;;;;23.23;10.70;;;;;;;6.28;79.20;93713.84;5004422;28;20045;-75
2023/03/08 10:38:56;;;;;;;24.25;12.00;;;;;;;6.35;80.20;93728.09;5010820;28;20259;-75
2023/03/08 10:41:22;;;;;;;30.73;12.02;;;;;;;6.19;80.39;93732.00;5008952;28;20378;-75
2023/03/08 10:43:53;;;;;;;28.45;10.30;;;;;;;6.23;78.35;93738.22;5009238;28;20084;-76
2023/03/08 10:46:22;;;;;;;29.48;12.55;;;;;;;6.27;79.64;93727.97;5015550;28;20099;-75
2023/03/08 10:48:48;;;;;;;26.23;10.63;;;;;;;6.32;79.76;93735.72;5007903;28;20137;-74
2023/03/08 10:51:20;;;;;;;26.13;11.38;;;;;;;6.40;91.97;93714.94;5015723;28;20103;-76
2023/03/08 10:53:57;;;;;;;27.42;11.20;;;;;;;6.32;97.63;93706.97;5011422;28;20085;-76
2023/03/08 10:56:35;;;;;;;23.10;10.90;;;;;;;6.48;94.09;93720.56;5010056;28;20050;-76
2023/03/08 10:59:03;;;;;;;27.45;11.48;;;;;;;6.23;87.96;93732.97;5011243;28;20042;-75
2023/03/08 11:01:34;;;;;;;26.60;10.68;;;;;;;6.20;89.62;93734.31;5006775;28;20045;-77
2023/03/08 11:04:05;;;;;;;24.45;10.40;;;;;;;6.38;87.65;93740.59;5008659;28;20070;-74
2023/03/08 11:06:34;;;;;;;28.70;11.57;;;;;;;6.27;87.56;93736.59;5015395;28;20042;-74
2023/03/08 11:09:02;;;;;;;32.05;11.95;;;;;;;6.21;94.04;93732.50;5019916;28;20065;-74
2023/03/08 11:11:38;;;;;;;25.55;11.70;;;;;;;6.16;94.39;93730.75;4993963;28;20436;-75
2023/03/08 11:14:08;;;;;;;21.45;10.07;;;;;;;5.90;97.32;93725.88;5014135;28;20510;-74
2023/03/08 11:16:42;;;;;;;23.20;11.15;;;;;;;5.93;98.71;93726.34;5011731;28;20038;-74
2023/03/08 11:19:25;;;;;;;27.20;10.73;;;;;;;5.82;100.00;93728.31;5021824;28;20121;-75
2023/03/08 11:22:12;;;;;;;23.52;11.00;;;;;;;5.79;100.00;93723.66;5025592;28;20046;-75
2023/03/08 11:24:55;;;;;;;21.17;9.15;;;;;;;5.79;97.18;93718.44;5014966;28;20061;-73
2023/03/08 11:27:21;;;;;;;21.80;9.45;;;;;;;5.79;100.00;93713.22;5022843;28;20042;-74